sensor_id;sensor_type;location;lat;lon;timestamp;P1;durP1;ratioP1;P2;durP2;ratioP2
8139;SDS011;4111;50.972;7.072;2022-12-29T00:01:38;1.60;;;0.80;;
8139;SDS011;4111;50.972;7.072;2022-12-29T00:04:05;0.80;;;0.80;;
8139;SDS011;4111;50.972;7.072;2022-12-29T00:06:39;0.90;;;0.90;;
8139;SDS011;4111;50.972;7.072;2022-12-29T00:09:06;1.53;;;0.90;;
8139;SDS011;4111;50.972;7.072;2022-12-29T00:11:34;0.87;;;0.87;;
8139;SDS011;4111;50.972;7.072;2022-12-29T00:14:01;0.70;;;0.70;;
8139;SDS011;4111;50.972;7.072;2022-12-29T00:16:51;0.90;;;0.90;;
8139;SDS011;4111;50.972;7.072;2022-12-29T00:19:17;0.70;;;0.70;;
8139;SDS011;4111;50.972;7.072;2022-12-29T00:22:02;0.70;;;0.70;;
8139;SDS011;4111;50.972;7.072;2022-12-29T00:24:47;1.10;;;1.00;;
8139;SDS011;4111;50.972;7.072;2022-12-29T00:27:32;0.80;;;0.80;;
8139;SDS011;4111;50.972;7.072;2022-12-29T00:30:18;2.10;;;0.90;;
8139;SDS011;4111;50.972;7.072;2022-12-29T00:33:12;2.00;;;0.83;;
8139;SDS011;4111;50.972;7.072;2022-12-29T00:35:59;1.27;;;0.83;;
8139;SDS011;4111;50.972;7.072;2022-12-29T00:38:30;0.80;;;0.80;;
8139;SDS011;4111;50.972;7.072;2022-12-29T00:41:17;0.60;;;0.60;;
8139;SDS011;4111;50.972;7.072;2022-12-29T00:44:02;2.40;;;0.70;;
8139;SDS011;4111;50.972;7.072;2022-12-29T00:48:59;0.60;;;0.60;;
8139;SDS011;4111;50.972;7.072;2022-12-29T00:51:45;0.77;;;0.70;;
8139;SDS011;4111;50.972;7.072;2022-12-29T00:54:13;0.70;;;0.70;;
8139;SDS011;4111;50.972;7.072;2022-12-29T00:56:40;0.60;;;0.60;;
8139;SDS011;4111;50.972;7.072;2022-12-29T00:59:07;0.80;;;0.80;;
8139;SDS011;4111;50.972;7.072;2022-12-29T01:01:36;0.70;;;0.70;;
8139;SDS011;4111;50.972;7.072;2022-12-29T01:04:03;0.57;;;0.57;;
8139;SDS011;4111;50.972;7.072;2022-12-29T01:06:31;0.70;;;0.70;;
8139;SDS011;4111;50.972;7.072;2022-12-29T01:08:58;0.97;;;0.70;;
8139;SDS011;4111;50.972;7.072;2022-12-29T01:11:43;0.70;;;0.70;;
8139;SDS011;4111;50.972;7.072;2022-12-29T01:14:09;0.70;;;0.70;;
8139;SDS011;4111;50.972;7.072;2022-12-29T01:16:36;0.70;;;0.70;;
8139;SDS011;4111;50.972;7.072;2022-12-29T01:19:03;0.60;;;0.60;;
8139;SDS011;4111;50.972;7.072;2022-12-29T01:21:29;0.60;;;0.60;;
8139;SDS011;4111;50.972;7.072;2022-12-29T01:23:56;0.60;;;0.60;;
8139;SDS011;4111;50.972;7.072;2022-12-29T01:26:22;0.60;;;0.60;;
8139;SDS011;4111;50.972;7.072;2022-12-29T01:28:49;0.50;;;0.50;;
8139;SDS011;4111;50.972;7.072;2022-12-29T01:31:15;0.60;;;0.60;;
8139;SDS011;4111;50.972;7.072;2022-12-29T01:33:43;0.50;;;0.50;;
8139;SDS011;4111;50.972;7.072;2022-12-29T01:36:11;0.60;;;0.60;;
8139;SDS011;4111;50.972;7.072;2022-12-29T01:38:40;0.60;;;0.60;;
8139;SDS011;4111;50.972;7.072;2022-12-29T01:41:08;0.87;;;0.63;;
8139;SDS011;4111;50.972;7.072;2022-12-29T01:43:44;1.70;;;0.60;;
8139;SDS011;4111;50.972;7.072;2022-12-29T01:48:47;0.60;;;0.60;;
8139;SDS011;4111;50.972;7.072;2022-12-29T01:51:17;0.60;;;0.60;;
8139;SDS011;4111;50.972;7.072;2022-12-29T01:53:44;0.53;;;0.53;;
8139;SDS011;4111;50.972;7.072;2022-12-29T01:56:11;0.93;;;0.50;;
8139;SDS011;4111;50.972;7.072;2022-12-29T01:58:44;0.60;;;0.60;;
8139;SDS011;4111;50.972;7.072;2022-12-29T02:01:15;0.70;;;0.70;;
8139;SDS011;4111;50.972;7.072;2022-12-29T02:03:44;1.37;;;0.60;;
8139;SDS011;4111;50.972;7.072;2022-12-29T02:06:12;1.07;;;0.80;;
8139;SDS011;4111;50.972;7.072;2022-12-29T02:08:43;0.70;;;0.70;;
8139;SDS011;4111;50.972;7.072;2022-12-29T02:11:13;0.87;;;0.70;;
8139;SDS011;4111;50.972;7.072;2022-12-29T02:13:39;0.70;;;0.63;;
8139;SDS011;4111;50.972;7.072;2022-12-29T02:16:27;0.60;;;0.60;;
8139;SDS011;4111;50.972;7.072;2022-12-29T02:32:45;1.53;;;1.10;;
8139;SDS011;4111;50.972;7.072;2022-12-29T02:38:13;0.93;;;0.77;;
8139;SDS011;4111;50.972;7.072;2022-12-29T02:40:58;0.90;;;0.80;;
8139;SDS011;4111;50.972;7.072;2022-12-29T02:46:13;1.90;;;1.10;;
8139;SDS011;4111;50.972;7.072;2022-12-29T02:51:51;3.53;;;1.90;;
8139;SDS011;4111;50.972;7.072;2022-12-29T02:54:24;1.07;;;0.97;;
8139;SDS011;4111;50.972;7.072;2022-12-29T02:57:14;1.37;;;0.93;;
8139;SDS011;4111;50.972;7.072;2022-12-29T02:59:48;0.80;;;0.80;;
8139;SDS011;4111;50.972;7.072;2022-12-29T03:05:33;0.90;;;0.87;;
8139;SDS011;4111;50.972;7.072;2022-12-29T03:08:28;1.37;;;1.00;;
8139;SDS011;4111;50.972;7.072;2022-12-29T03:11:05;1.37;;;0.97;;
8139;SDS011;4111;50.972;7.072;2022-12-29T03:13:56;1.30;;;0.90;;
8139;SDS011;4111;50.972;7.072;2022-12-29T03:16:50;2.60;;;0.80;;
8139;SDS011;4111;50.972;7.072;2022-12-29T03:22:04;0.80;;;0.80;;
8139;SDS011;4111;50.972;7.072;2022-12-29T03:24:52;1.30;;;0.90;;
8139;SDS011;4111;50.972;7.072;2022-12-29T03:27:22;1.33;;;1.23;;
8139;SDS011;4111;50.972;7.072;2022-12-29T03:29:55;0.87;;;0.87;;
8139;SDS011;4111;50.972;7.072;2022-12-29T03:32:27;0.80;;;0.80;;
8139;SDS011;4111;50.972;7.072;2022-12-29T03:34:58;1.23;;;0.87;;
8139;SDS011;4111;50.972;7.072;2022-12-29T03:37:28;0.80;;;0.80;;
8139;SDS011;4111;50.972;7.072;2022-12-29T03:40:01;0.70;;;0.70;;
8139;SDS011;4111;50.972;7.072;2022-12-29T03:42:28;0.80;;;0.67;;
8139;SDS011;4111;50.972;7.072;2022-12-29T03:44:58;0.93;;;0.90;;
8139;SDS011;4111;50.972;7.072;2022-12-29T03:47:25;0.67;;;0.67;;
8139;SDS011;4111;50.972;7.072;2022-12-29T03:49:51;1.30;;;0.83;;
8139;SDS011;4111;50.972;7.072;2022-12-29T03:52:18;0.83;;;0.83;;
8139;SDS011;4111;50.972;7.072;2022-12-29T03:54:45;1.07;;;0.77;;
8139;SDS011;4111;50.972;7.072;2022-12-29T03:57:12;1.23;;;1.00;;
8139;SDS011;4111;50.972;7.072;2022-12-29T03:59:39;0.90;;;0.90;;
8139;SDS011;4111;50.972;7.072;2022-12-29T04:02:05;0.73;;;0.70;;
8139;SDS011;4111;50.972;7.072;2022-12-29T04:04:32;0.80;;;0.80;;
8139;SDS011;4111;50.972;7.072;2022-12-29T04:06:59;0.80;;;0.80;;
8139;SDS011;4111;50.972;7.072;2022-12-29T04:09:25;1.60;;;0.77;;
8139;SDS011;4111;50.972;7.072;2022-12-29T04:11:51;0.70;;;0.70;;
8139;SDS011;4111;50.972;7.072;2022-12-29T04:14:18;0.83;;;0.83;;
8139;SDS011;4111;50.972;7.072;2022-12-29T04:16:44;1.70;;;0.87;;
8139;SDS011;4111;50.972;7.072;2022-12-29T04:19:10;0.60;;;0.60;;
8139;SDS011;4111;50.972;7.072;2022-12-29T04:21:37;1.07;;;0.83;;
8139;SDS011;4111;50.972;7.072;2022-12-29T04:24:04;1.23;;;0.80;;
8139;SDS011;4111;50.972;7.072;2022-12-29T04:26:32;0.80;;;0.80;;
8139;SDS011;4111;50.972;7.072;2022-12-29T04:28:59;0.90;;;0.90;;
8139;SDS011;4111;50.972;7.072;2022-12-29T04:31:25;0.80;;;0.80;;
8139;SDS011;4111;50.972;7.072;2022-12-29T04:33:52;1.00;;;1.00;;
8139;SDS011;4111;50.972;7.072;2022-12-29T04:36:18;1.17;;;1.10;;
8139;SDS011;4111;50.972;7.072;2022-12-29T04:38:45;0.70;;;0.70;;
8139;SDS011;4111;50.972;7.072;2022-12-29T04:41:11;0.90;;;0.90;;
8139;SDS011;4111;50.972;7.072;2022-12-29T04:43:37;2.07;;;0.80;;
8139;SDS011;4111;50.972;7.072;2022-12-29T04:46:04;0.70;;;0.70;;
8139;SDS011;4111;50.972;7.072;2022-12-29T04:48:31;0.97;;;0.97;;
8139;SDS011;4111;50.972;7.072;2022-12-29T04:50:57;2.63;;;0.83;;
8139;SDS011;4111;50.972;7.072;2022-12-29T04:53:23;0.60;;;0.60;;
8139;SDS011;4111;50.972;7.072;2022-12-29T04:55:50;1.53;;;1.00;;
8139;SDS011;4111;50.972;7.072;2022-12-29T04:58:19;2.20;;;0.90;;
8139;SDS011;4111;50.972;7.072;2022-12-29T05:00:48;0.80;;;0.80;;
8139;SDS011;4111;50.972;7.072;2022-12-29T05:03:16;0.90;;;0.90;;
8139;SDS011;4111;50.972;7.072;2022-12-29T05:05:43;0.80;;;0.80;;
8139;SDS011;4111;50.972;7.072;2022-12-29T05:08:09;0.70;;;0.70;;
8139;SDS011;4111;50.972;7.072;2022-12-29T05:10:36;1.33;;;0.80;;
8139;SDS011;4111;50.972;7.072;2022-12-29T05:13:03;0.87;;;0.80;;
8139;SDS011;4111;50.972;7.072;2022-12-29T05:15:29;0.70;;;0.70;;
8139;SDS011;4111;50.972;7.072;2022-12-29T05:17:56;1.50;;;0.80;;
8139;SDS011;4111;50.972;7.072;2022-12-29T05:20:22;1.73;;;0.87;;
8139;SDS011;4111;50.972;7.072;2022-12-29T05:22:48;0.97;;;0.83;;
8139;SDS011;4111;50.972;7.072;2022-12-29T05:25:15;0.83;;;0.80;;
8139;SDS011;4111;50.972;7.072;2022-12-29T05:27:42;1.50;;;0.87;;
8139;SDS011;4111;50.972;7.072;2022-12-29T05:30:09;0.60;;;0.60;;
8139;SDS011;4111;50.972;7.072;2022-12-29T05:32:36;0.70;;;0.70;;
8139;SDS011;4111;50.972;7.072;2022-12-29T05:35:02;0.80;;;0.70;;
8139;SDS011;4111;50.972;7.072;2022-12-29T05:37:29;0.60;;;0.60;;
8139;SDS011;4111;50.972;7.072;2022-12-29T05:39:55;0.90;;;0.90;;
8139;SDS011;4111;50.972;7.072;2022-12-29T05:42:22;2.37;;;1.00;;
8139;SDS011;4111;50.972;7.072;2022-12-29T05:44:48;1.53;;;0.73;;
8139;SDS011;4111;50.972;7.072;2022-12-29T05:47:18;0.90;;;0.90;;
8139;SDS011;4111;50.972;7.072;2022-12-29T05:49:44;1.50;;;0.77;;
8139;SDS011;4111;50.972;7.072;2022-12-29T05:52:10;0.70;;;0.70;;
8139;SDS011;4111;50.972;7.072;2022-12-29T05:54:37;0.60;;;0.60;;
8139;SDS011;4111;50.972;7.072;2022-12-29T05:57:03;0.53;;;0.53;;
8139;SDS011;4111;50.972;7.072;2022-12-29T05:59:29;1.93;;;0.80;;
8139;SDS011;4111;50.972;7.072;2022-12-29T06:01:56;0.63;;;0.63;;
8139;SDS011;4111;50.972;7.072;2022-12-29T06:04:22;1.23;;;1.00;;
8139;SDS011;4111;50.972;7.072;2022-12-29T06:06:49;0.70;;;0.70;;
8139;SDS011;4111;50.972;7.072;2022-12-29T06:09:15;0.60;;;0.60;;
8139;SDS011;4111;50.972;7.072;2022-12-29T06:11:42;0.83;;;0.83;;
8139;SDS011;4111;50.972;7.072;2022-12-29T06:14:09;0.60;;;0.60;;
8139;SDS011;4111;50.972;7.072;2022-12-29T06:16:35;0.80;;;0.80;;
8139;SDS011;4111;50.972;7.072;2022-12-29T06:19:02;1.00;;;1.00;;
8139;SDS011;4111;50.972;7.072;2022-12-29T06:21:28;1.57;;;1.47;;
8139;SDS011;4111;50.972;7.072;2022-12-29T06:23:55;2.43;;;0.90;;
8139;SDS011;4111;50.972;7.072;2022-12-29T06:26:21;0.70;;;0.70;;
8139;SDS011;4111;50.972;7.072;2022-12-29T06:28:48;1.20;;;0.60;;
8139;SDS011;4111;50.972;7.072;2022-12-29T06:31:14;1.17;;;0.80;;
8139;SDS011;4111;50.972;7.072;2022-12-29T06:33:41;1.80;;;0.70;;
8139;SDS011;4111;50.972;7.072;2022-12-29T06:36:07;0.60;;;0.60;;
8139;SDS011;4111;50.972;7.072;2022-12-29T06:38:34;0.70;;;0.70;;
8139;SDS011;4111;50.972;7.072;2022-12-29T06:41:01;1.13;;;0.67;;
8139;SDS011;4111;50.972;7.072;2022-12-29T06:43:27;1.77;;;0.80;;
8139;SDS011;4111;50.972;7.072;2022-12-29T06:45:54;0.93;;;0.60;;
8139;SDS011;4111;50.972;7.072;2022-12-29T06:48:20;0.60;;;0.60;;
8139;SDS011;4111;50.972;7.072;2022-12-29T06:50:47;2.07;;;0.90;;
8139;SDS011;4111;50.972;7.072;2022-12-29T06:53:13;0.80;;;0.80;;
8139;SDS011;4111;50.972;7.072;2022-12-29T06:55:40;0.83;;;0.70;;
8139;SDS011;4111;50.972;7.072;2022-12-29T06:58:08;0.60;;;0.60;;
8139;SDS011;4111;50.972;7.072;2022-12-29T07:00:34;1.63;;;0.70;;
8139;SDS011;4111;50.972;7.072;2022-12-29T07:03:00;1.10;;;0.60;;
8139;SDS011;4111;50.972;7.072;2022-12-29T07:05:27;1.30;;;0.90;;
8139;SDS011;4111;50.972;7.072;2022-12-29T07:07:54;0.67;;;0.67;;
8139;SDS011;4111;50.972;7.072;2022-12-29T07:10:21;2.30;;;0.70;;
8139;SDS011;4111;50.972;7.072;2022-12-29T07:12:47;0.60;;;0.60;;
8139;SDS011;4111;50.972;7.072;2022-12-29T07:15:14;0.87;;;0.60;;
8139;SDS011;4111;50.972;7.072;2022-12-29T07:17:41;0.50;;;0.50;;
8139;SDS011;4111;50.972;7.072;2022-12-29T07:20:08;1.03;;;0.60;;
8139;SDS011;4111;50.972;7.072;2022-12-29T07:22:35;0.70;;;0.70;;
8139;SDS011;4111;50.972;7.072;2022-12-29T07:25:02;0.70;;;0.70;;
8139;SDS011;4111;50.972;7.072;2022-12-29T07:27:29;0.87;;;0.80;;
8139;SDS011;4111;50.972;7.072;2022-12-29T07:29:55;1.13;;;0.77;;
8139;SDS011;4111;50.972;7.072;2022-12-29T07:32:22;1.23;;;0.70;;
8139;SDS011;4111;50.972;7.072;2022-12-29T07:34:48;1.17;;;1.03;;
8139;SDS011;4111;50.972;7.072;2022-12-29T07:37:15;1.33;;;0.90;;
8139;SDS011;4111;50.972;7.072;2022-12-29T07:39:42;0.80;;;0.80;;
8139;SDS011;4111;50.972;7.072;2022-12-29T07:42:09;1.77;;;1.00;;
8139;SDS011;4111;50.972;7.072;2022-12-29T07:44:35;1.20;;;0.70;;
8139;SDS011;4111;50.972;7.072;2022-12-29T07:47:02;1.10;;;0.73;;
8139;SDS011;4111;50.972;7.072;2022-12-29T07:49:29;0.87;;;0.70;;
8139;SDS011;4111;50.972;7.072;2022-12-29T07:51:55;0.90;;;0.80;;
8139;SDS011;4111;50.972;7.072;2022-12-29T07:54:22;1.03;;;0.90;;
8139;SDS011;4111;50.972;7.072;2022-12-29T07:56:49;1.33;;;1.17;;
8139;SDS011;4111;50.972;7.072;2022-12-29T07:59:16;1.50;;;0.83;;
8139;SDS011;4111;50.972;7.072;2022-12-29T08:01:42;1.73;;;0.70;;
8139;SDS011;4111;50.972;7.072;2022-12-29T08:04:09;2.33;;;0.87;;
8139;SDS011;4111;50.972;7.072;2022-12-29T08:06:35;1.23;;;0.93;;
8139;SDS011;4111;50.972;7.072;2022-12-29T08:09:03;1.00;;;0.90;;
8139;SDS011;4111;50.972;7.072;2022-12-29T08:11:41;1.40;;;0.93;;
8139;SDS011;4111;50.972;7.072;2022-12-29T08:14:09;2.60;;;1.10;;
8139;SDS011;4111;50.972;7.072;2022-12-29T08:16:35;3.30;;;1.63;;
8139;SDS011;4111;50.972;7.072;2022-12-29T08:19:02;2.23;;;1.30;;
8139;SDS011;4111;50.972;7.072;2022-12-29T08:21:31;2.43;;;1.33;;
8139;SDS011;4111;50.972;7.072;2022-12-29T08:23:57;3.47;;;1.27;;
8139;SDS011;4111;50.972;7.072;2022-12-29T08:26:25;3.43;;;1.50;;
8139;SDS011;4111;50.972;7.072;2022-12-29T08:28:54;3.00;;;1.50;;
8139;SDS011;4111;50.972;7.072;2022-12-29T08:31:22;2.83;;;1.40;;
8139;SDS011;4111;50.972;7.072;2022-12-29T08:33:48;1.97;;;1.20;;
8139;SDS011;4111;50.972;7.072;2022-12-29T08:36:15;2.97;;;1.30;;
8139;SDS011;4111;50.972;7.072;2022-12-29T08:38:43;4.03;;;1.60;;
8139;SDS011;4111;50.972;7.072;2022-12-29T08:41:09;2.87;;;1.50;;
8139;SDS011;4111;50.972;7.072;2022-12-29T08:43:36;4.07;;;1.40;;
8139;SDS011;4111;50.972;7.072;2022-12-29T08:46:02;2.20;;;1.30;;
8139;SDS011;4111;50.972;7.072;2022-12-29T08:48:29;5.40;;;1.30;;
8139;SDS011;4111;50.972;7.072;2022-12-29T08:50:55;5.13;;;1.50;;
8139;SDS011;4111;50.972;7.072;2022-12-29T08:53:22;2.90;;;1.50;;
8139;SDS011;4111;50.972;7.072;2022-12-29T08:55:54;2.43;;;1.33;;
8139;SDS011;4111;50.972;7.072;2022-12-29T08:58:30;2.13;;;1.37;;
8139;SDS011;4111;50.972;7.072;2022-12-29T09:00:56;4.07;;;1.50;;
8139;SDS011;4111;50.972;7.072;2022-12-29T09:03:24;2.43;;;1.47;;
8139;SDS011;4111;50.972;7.072;2022-12-29T09:06:11;2.97;;;1.23;;
8139;SDS011;4111;50.972;7.072;2022-12-29T09:08:37;2.37;;;1.23;;
8139;SDS011;4111;50.972;7.072;2022-12-29T09:11:17;6.17;;;1.63;;
8139;SDS011;4111;50.972;7.072;2022-12-29T09:13:46;5.67;;;1.50;;
8139;SDS011;4111;50.972;7.072;2022-12-29T09:16:13;2.90;;;1.50;;
8139;SDS011;4111;50.972;7.072;2022-12-29T09:18:39;3.57;;;1.30;;
8139;SDS011;4111;50.972;7.072;2022-12-29T09:21:06;4.03;;;1.43;;
8139;SDS011;4111;50.972;7.072;2022-12-29T09:23:33;2.17;;;1.20;;
8139;SDS011;4111;50.972;7.072;2022-12-29T09:26:00;3.77;;;1.50;;
8139;SDS011;4111;50.972;7.072;2022-12-29T09:28:27;5.50;;;1.80;;
8139;SDS011;4111;50.972;7.072;2022-12-29T09:30:55;3.03;;;1.30;;
8139;SDS011;4111;50.972;7.072;2022-12-29T09:33:22;3.07;;;1.40;;
8139;SDS011;4111;50.972;7.072;2022-12-29T09:35:50;6.33;;;1.60;;
8139;SDS011;4111;50.972;7.072;2022-12-29T09:38:18;2.60;;;1.23;;
8139;SDS011;4111;50.972;7.072;2022-12-29T09:40:49;6.03;;;1.60;;
8139;SDS011;4111;50.972;7.072;2022-12-29T09:46:14;5.17;;;1.93;;
8139;SDS011;4111;50.972;7.072;2022-12-29T09:48:37;8.07;;;1.93;;
8139;SDS011;4111;50.972;7.072;2022-12-29T09:51:11;4.30;;;1.53;;
8139;SDS011;4111;50.972;7.072;2022-12-29T09:53:45;5.20;;;1.83;;
8139;SDS011;4111;50.972;7.072;2022-12-29T09:56:21;4.37;;;1.80;;
8139;SDS011;4111;50.972;7.072;2022-12-29T09:58:59;4.97;;;1.60;;
8139;SDS011;4111;50.972;7.072;2022-12-29T10:01:42;4.50;;;1.37;;
8139;SDS011;4111;50.972;7.072;2022-12-29T10:04:15;3.10;;;1.60;;
8139;SDS011;4111;50.972;7.072;2022-12-29T10:06:46;4.10;;;1.53;;
8139;SDS011;4111;50.972;7.072;2022-12-29T10:15:29;4.43;;;1.50;;
8139;SDS011;4111;50.972;7.072;2022-12-29T10:21:05;4.67;;;1.80;;
8139;SDS011;4111;50.972;7.072;2022-12-29T10:23:40;6.23;;;2.17;;
8139;SDS011;4111;50.972;7.072;2022-12-29T10:26:10;5.00;;;1.40;;
8139;SDS011;4111;50.972;7.072;2022-12-29T10:31:21;4.30;;;1.30;;
8139;SDS011;4111;50.972;7.072;2022-12-29T10:33:53;3.90;;;1.53;;
8139;SDS011;4111;50.972;7.072;2022-12-29T10:36:33;4.83;;;1.50;;
8139;SDS011;4111;50.972;7.072;2022-12-29T10:41:41;5.20;;;1.77;;
8139;SDS011;4111;50.972;7.072;2022-12-29T10:44:16;4.93;;;1.60;;
8139;SDS011;4111;50.972;7.072;2022-12-29T10:46:49;4.10;;;1.43;;
8139;SDS011;4111;50.972;7.072;2022-12-29T10:49:23;2.40;;;1.40;;
8139;SDS011;4111;50.972;7.072;2022-12-29T10:51:53;4.07;;;1.60;;
8139;SDS011;4111;50.972;7.072;2022-12-29T10:54:30;2.67;;;1.33;;
8139;SDS011;4111;50.972;7.072;2022-12-29T10:57:03;5.93;;;1.70;;
8139;SDS011;4111;50.972;7.072;2022-12-29T10:59:36;6.03;;;1.47;;
8139;SDS011;4111;50.972;7.072;2022-12-29T11:07:25;3.73;;;1.50;;
8139;SDS011;4111;50.972;7.072;2022-12-29T11:09:53;3.33;;;1.37;;
8139;SDS011;4111;50.972;7.072;2022-12-29T11:12:27;5.73;;;1.53;;
8139;SDS011;4111;50.972;7.072;2022-12-29T11:15:02;3.73;;;1.37;;
8139;SDS011;4111;50.972;7.072;2022-12-29T11:17:57;5.17;;;1.70;;
8139;SDS011;4111;50.972;7.072;2022-12-29T11:22:55;3.80;;;1.40;;
8139;SDS011;4111;50.972;7.072;2022-12-29T11:25:21;5.03;;;1.70;;
8139;SDS011;4111;50.972;7.072;2022-12-29T11:27:55;3.07;;;1.47;;
8139;SDS011;4111;50.972;7.072;2022-12-29T11:30:31;4.13;;;1.57;;
8139;SDS011;4111;50.972;7.072;2022-12-29T11:32:59;6.47;;;1.57;;
8139;SDS011;4111;50.972;7.072;2022-12-29T11:35:30;7.27;;;1.83;;
8139;SDS011;4111;50.972;7.072;2022-12-29T11:37:57;3.40;;;1.60;;
8139;SDS011;4111;50.972;7.072;2022-12-29T11:40:25;8.20;;;2.10;;
8139;SDS011;4111;50.972;7.072;2022-12-29T11:42:54;5.63;;;1.77;;
8139;SDS011;4111;50.972;7.072;2022-12-29T11:45:30;3.07;;;1.57;;
8139;SDS011;4111;50.972;7.072;2022-12-29T11:48:06;3.93;;;1.53;;
8139;SDS011;4111;50.972;7.072;2022-12-29T11:50:37;4.50;;;1.63;;
8139;SDS011;4111;50.972;7.072;2022-12-29T11:53:22;5.33;;;1.73;;
8139;SDS011;4111;50.972;7.072;2022-12-29T11:55:53;5.60;;;1.93;;
8139;SDS011;4111;50.972;7.072;2022-12-29T11:58:33;5.63;;;2.07;;
8139;SDS011;4111;50.972;7.072;2022-12-29T12:04:00;5.90;;;1.50;;
8139;SDS011;4111;50.972;7.072;2022-12-29T12:06:30;4.93;;;2.07;;
8139;SDS011;4111;50.972;7.072;2022-12-29T12:09:03;5.80;;;1.83;;
8139;SDS011;4111;50.972;7.072;2022-12-29T12:11:37;5.17;;;1.70;;
8139;SDS011;4111;50.972;7.072;2022-12-29T12:16:46;4.00;;;1.70;;
8139;SDS011;4111;50.972;7.072;2022-12-29T12:21:51;3.03;;;1.40;;
8139;SDS011;4111;50.972;7.072;2022-12-29T12:24:36;3.40;;;1.40;;
8139;SDS011;4111;50.972;7.072;2022-12-29T12:27:12;4.10;;;1.47;;
8139;SDS011;4111;50.972;7.072;2022-12-29T12:29:50;2.50;;;1.43;;
8139;SDS011;4111;50.972;7.072;2022-12-29T12:35:12;5.67;;;1.77;;
8139;SDS011;4111;50.972;7.072;2022-12-29T12:40:29;2.40;;;1.50;;
8139;SDS011;4111;50.972;7.072;2022-12-29T12:43:05;2.27;;;1.50;;
8139;SDS011;4111;50.972;7.072;2022-12-29T12:57:22;6.03;;;1.90;;
8139;SDS011;4111;50.972;7.072;2022-12-29T13:00:10;4.40;;;1.63;;
8139;SDS011;4111;50.972;7.072;2022-12-29T13:05:42;7.60;;;1.93;;
8139;SDS011;4111;50.972;7.072;2022-12-29T13:11:37;4.07;;;1.60;;
8139;SDS011;4111;50.972;7.072;2022-12-29T13:20:28;7.90;;;1.77;;
8139;SDS011;4111;50.972;7.072;2022-12-29T13:25:13;5.77;;;2.00;;
8139;SDS011;4111;50.972;7.072;2022-12-29T13:30:45;3.87;;;1.40;;
8139;SDS011;4111;50.972;7.072;2022-12-29T13:36:18;4.17;;;1.70;;
8139;SDS011;4111;50.972;7.072;2022-12-29T13:39:07;7.73;;;2.53;;
8139;SDS011;4111;50.972;7.072;2022-12-29T13:41:48;7.00;;;1.70;;
8139;SDS011;4111;50.972;7.072;2022-12-29T13:44:21;5.47;;;1.70;;
8139;SDS011;4111;50.972;7.072;2022-12-29T13:47:36;4.77;;;2.43;;
8139;SDS011;4111;50.972;7.072;2022-12-29T13:50:08;4.50;;;1.63;;
8139;SDS011;4111;50.972;7.072;2022-12-29T13:52:54;4.13;;;1.63;;
8139;SDS011;4111;50.972;7.072;2022-12-29T13:55:32;3.60;;;1.47;;
8139;SDS011;4111;50.972;7.072;2022-12-29T14:00:51;3.77;;;1.50;;
8139;SDS011;4111;50.972;7.072;2022-12-29T14:03:34;6.63;;;3.43;;
8139;SDS011;4111;50.972;7.072;2022-12-29T14:06:19;5.80;;;1.83;;
8139;SDS011;4111;50.972;7.072;2022-12-29T14:08:49;6.30;;;1.87;;
8139;SDS011;4111;50.972;7.072;2022-12-29T14:11:22;4.63;;;1.97;;
8139;SDS011;4111;50.972;7.072;2022-12-29T14:13:55;6.13;;;1.70;;
8139;SDS011;4111;50.972;7.072;2022-12-29T14:16:29;6.07;;;1.90;;
8139;SDS011;4111;50.972;7.072;2022-12-29T14:19:05;3.33;;;1.63;;
8139;SDS011;4111;50.972;7.072;2022-12-29T14:21:55;4.40;;;1.60;;
8139;SDS011;4111;50.972;7.072;2022-12-29T14:24:35;5.77;;;2.30;;
8139;SDS011;4111;50.972;7.072;2022-12-29T14:34:47;5.00;;;2.07;;
8139;SDS011;4111;50.972;7.072;2022-12-29T14:37:25;7.13;;;1.83;;
8139;SDS011;4111;50.972;7.072;2022-12-29T14:42:47;4.10;;;2.00;;
8139;SDS011;4111;50.972;7.072;2022-12-29T14:47:43;3.87;;;1.87;;
8139;SDS011;4111;50.972;7.072;2022-12-29T14:53:05;5.33;;;1.87;;
8139;SDS011;4111;50.972;7.072;2022-12-29T14:55:39;5.17;;;2.00;;
8139;SDS011;4111;50.972;7.072;2022-12-29T14:58:20;3.83;;;1.57;;
8139;SDS011;4111;50.972;7.072;2022-12-29T15:00:53;4.93;;;2.00;;
8139;SDS011;4111;50.972;7.072;2022-12-29T15:03:38;4.97;;;1.80;;
8139;SDS011;4111;50.972;7.072;2022-12-29T15:06:11;4.10;;;1.67;;
8139;SDS011;4111;50.972;7.072;2022-12-29T15:08:45;4.53;;;1.70;;
8139;SDS011;4111;50.972;7.072;2022-12-29T15:14:01;8.00;;;2.20;;
8139;SDS011;4111;50.972;7.072;2022-12-29T15:16:32;3.10;;;1.77;;
8139;SDS011;4111;50.972;7.072;2022-12-29T15:19:03;4.43;;;1.90;;
8139;SDS011;4111;50.972;7.072;2022-12-29T15:21:35;6.23;;;2.07;;
8139;SDS011;4111;50.972;7.072;2022-12-29T15:24:02;5.90;;;1.70;;
8139;SDS011;4111;50.972;7.072;2022-12-29T15:26:40;4.33;;;1.70;;
8139;SDS011;4111;50.972;7.072;2022-12-29T15:29:28;6.40;;;1.80;;
8139;SDS011;4111;50.972;7.072;2022-12-29T15:32:09;4.83;;;1.80;;
8139;SDS011;4111;50.972;7.072;2022-12-29T15:34:48;8.53;;;2.07;;
8139;SDS011;4111;50.972;7.072;2022-12-29T15:37:17;8.33;;;2.03;;
8139;SDS011;4111;50.972;7.072;2022-12-29T15:39:58;3.57;;;1.63;;
8139;SDS011;4111;50.972;7.072;2022-12-29T15:45:16;6.10;;;1.73;;
8139;SDS011;4111;50.972;7.072;2022-12-29T15:47:43;4.23;;;2.03;;
8139;SDS011;4111;50.972;7.072;2022-12-29T15:50:26;5.90;;;1.93;;
8139;SDS011;4111;50.972;7.072;2022-12-29T15:52:57;3.43;;;1.70;;
8139;SDS011;4111;50.972;7.072;2022-12-29T15:55:35;3.90;;;1.73;;
8139;SDS011;4111;50.972;7.072;2022-12-29T15:58:05;4.80;;;2.03;;
8139;SDS011;4111;50.972;7.072;2022-12-29T16:00:46;7.40;;;1.83;;
8139;SDS011;4111;50.972;7.072;2022-12-29T16:03:15;4.43;;;1.93;;
8139;SDS011;4111;50.972;7.072;2022-12-29T16:05:42;6.47;;;2.50;;
8139;SDS011;4111;50.972;7.072;2022-12-29T16:08:20;6.97;;;2.13;;
8139;SDS011;4111;50.972;7.072;2022-12-29T16:10:50;6.90;;;2.23;;
8139;SDS011;4111;50.972;7.072;2022-12-29T16:13:23;10.50;;;2.40;;
8139;SDS011;4111;50.972;7.072;2022-12-29T16:15:54;4.23;;;2.30;;
8139;SDS011;4111;50.972;7.072;2022-12-29T16:18:28;7.87;;;3.03;;
8139;SDS011;4111;50.972;7.072;2022-12-29T16:20:59;4.73;;;2.43;;
8139;SDS011;4111;50.972;7.072;2022-12-29T16:23:26;6.20;;;2.53;;
8139;SDS011;4111;50.972;7.072;2022-12-29T16:25:54;6.73;;;1.87;;
8139;SDS011;4111;50.972;7.072;2022-12-29T16:28:25;7.60;;;2.57;;
8139;SDS011;4111;50.972;7.072;2022-12-29T16:31:05;4.43;;;2.07;;
8139;SDS011;4111;50.972;7.072;2022-12-29T16:33:54;6.00;;;1.80;;
8139;SDS011;4111;50.972;7.072;2022-12-29T16:36:23;9.33;;;2.13;;
8139;SDS011;4111;50.972;7.072;2022-12-29T16:38:50;4.60;;;1.83;;
8139;SDS011;4111;50.972;7.072;2022-12-29T16:41:29;5.07;;;2.10;;
8139;SDS011;4111;50.972;7.072;2022-12-29T16:44:12;6.30;;;1.97;;
8139;SDS011;4111;50.972;7.072;2022-12-29T16:49:31;4.73;;;2.10;;
8139;SDS011;4111;50.972;7.072;2022-12-29T16:51:59;5.07;;;2.13;;
8139;SDS011;4111;50.972;7.072;2022-12-29T16:54:33;7.43;;;2.23;;
8139;SDS011;4111;50.972;7.072;2022-12-29T16:57:02;8.13;;;2.33;;
8139;SDS011;4111;50.972;7.072;2022-12-29T17:02:15;7.10;;;2.47;;
8139;SDS011;4111;50.972;7.072;2022-12-29T17:04:45;5.30;;;1.90;;
8139;SDS011;4111;50.972;7.072;2022-12-29T17:07:15;5.67;;;1.77;;
8139;SDS011;4111;50.972;7.072;2022-12-29T17:09:50;5.87;;;2.10;;
8139;SDS011;4111;50.972;7.072;2022-12-29T17:12:26;7.43;;;2.27;;
8139;SDS011;4111;50.972;7.072;2022-12-29T17:14:56;8.40;;;2.27;;
8139;SDS011;4111;50.972;7.072;2022-12-29T17:17:33;5.80;;;2.30;;
8139;SDS011;4111;50.972;7.072;2022-12-29T17:20:03;7.27;;;2.50;;
8139;SDS011;4111;50.972;7.072;2022-12-29T17:22:32;9.40;;;2.00;;
8139;SDS011;4111;50.972;7.072;2022-12-29T17:24:59;4.40;;;1.90;;
8139;SDS011;4111;50.972;7.072;2022-12-29T17:27:32;3.97;;;2.03;;
8139;SDS011;4111;50.972;7.072;2022-12-29T17:33:00;10.27;;;2.57;;
8139;SDS011;4111;50.972;7.072;2022-12-29T17:35:30;5.77;;;2.13;;
8139;SDS011;4111;50.972;7.072;2022-12-29T17:37:57;8.07;;;2.30;;
8139;SDS011;4111;50.972;7.072;2022-12-29T17:40:24;6.20;;;2.40;;
8139;SDS011;4111;50.972;7.072;2022-12-29T17:42:55;12.17;;;2.50;;
8139;SDS011;4111;50.972;7.072;2022-12-29T17:45:27;6.20;;;2.10;;
8139;SDS011;4111;50.972;7.072;2022-12-29T17:47:56;6.17;;;2.17;;
8139;SDS011;4111;50.972;7.072;2022-12-29T17:50:26;4.93;;;2.27;;
8139;SDS011;4111;50.972;7.072;2022-12-29T17:52:56;7.73;;;2.50;;
8139;SDS011;4111;50.972;7.072;2022-12-29T17:55:26;7.63;;;2.67;;
8139;SDS011;4111;50.972;7.072;2022-12-29T17:58:18;8.30;;;3.13;;